createdAt,value
2017-05-12T00:00:14.619Z,992.93
2017-05-12T00:00:40.738Z,992.96
2017-05-12T00:01:06.846Z,992.95
2017-05-12T00:01:32.970Z,992.93
2017-05-12T00:01:59.061Z,992.94
2017-05-12T00:02:25.168Z,992.96
2017-05-12T00:02:51.331Z,992.95
2017-05-12T00:03:17.447Z,992.92
2017-05-12T00:03:43.624Z,992.94
2017-05-12T00:04:09.730Z,992.98
2017-05-12T00:04:35.821Z,992.92
2017-05-12T00:05:01.945Z,992.97
2017-05-12T00:05:28.109Z,992.96
2017-05-12T00:05:54.228Z,992.99
2017-05-12T00:06:20.363Z,992.95
2017-05-12T00:06:46.477Z,992.96
2017-05-12T00:07:12.577Z,992.92
2017-05-12T00:07:38.714Z,992.95
2017-05-12T00:08:04.804Z,992.93
2017-05-12T00:08:30.950Z,992.96
2017-05-12T00:08:57.086Z,992.96
2017-05-12T00:09:23.209Z,992.98
2017-05-12T00:09:49.371Z,992.97
2017-05-12T00:10:15.482Z,992.98
2017-05-12T00:10:41.607Z,992.99
2017-05-12T00:11:07.724Z,993
2017-05-12T00:11:33.832Z,993
2017-05-12T00:11:59.974Z,993.02
2017-05-12T00:12:26.083Z,993.01
2017-05-12T00:12:52.253Z,993
2017-05-12T00:13:18.393Z,993.07
2017-05-12T00:13:44.526Z,993.03
2017-05-12T00:14:10.679Z,993.1
2017-05-12T00:14:36.798Z,993.08
2017-05-12T00:15:02.953Z,993.07
2017-05-12T00:15:29.052Z,993.1
2017-05-12T00:15:55.191Z,993.05
2017-05-12T00:16:21.321Z,993.06
2017-05-12T00:16:47.429Z,993.04
2017-05-12T00:17:13.524Z,993.07
2017-05-12T00:17:39.679Z,993.09
2017-05-12T00:18:05.817Z,993.08
2017-05-12T00:18:31.951Z,993.12
2017-05-12T00:18:58.108Z,993.1
2017-05-12T00:19:24.247Z,993.12
2017-05-12T00:19:50.379Z,993.11
2017-05-12T00:20:16.514Z,993.14
2017-05-12T00:20:42.602Z,993.11
2017-05-12T00:21:08.703Z,993.11
2017-05-12T00:21:34.812Z,993.08
2017-05-12T00:22:00.902Z,993.09
2017-05-12T00:22:27.050Z,993.07
2017-05-12T00:22:53.186Z,993.09
2017-05-12T00:23:19.336Z,993.06
2017-05-12T00:23:45.451Z,993.09
2017-05-12T00:24:11.562Z,993.08
2017-05-12T00:24:37.688Z,993.08
2017-05-12T00:25:03.801Z,993.07
2017-05-12T00:25:29.909Z,993.02
2017-05-12T00:25:56.081Z,993.08
2017-05-12T00:26:22.150Z,993.07
2017-05-12T00:26:48.251Z,993.07
2017-05-12T00:27:14.365Z,993.08
2017-05-12T00:27:40.450Z,993.09
2017-05-12T00:28:06.573Z,993.06
2017-05-12T00:28:32.696Z,993.08
2017-05-12T00:28:58.885Z,993.07
2017-05-12T00:29:25.040Z,993.1
2017-05-12T00:29:51.206Z,993.08
2017-05-12T00:30:17.307Z,993.1
2017-05-12T00:30:43.415Z,993.1
2017-05-12T00:31:09.504Z,993.13
2017-05-12T00:31:35.629Z,993.14
2017-05-12T00:32:01.761Z,993.1
2017-05-12T00:32:27.930Z,993.09
2017-05-12T00:32:54.051Z,993.14
2017-05-12T00:33:20.155Z,993.11
2017-05-12T00:33:46.250Z,993.09
2017-05-12T00:34:12.357Z,993.13
2017-05-12T00:34:38.471Z,993.08
2017-05-12T00:35:04.594Z,993.08
2017-05-12T00:35:30.702Z,993.09
2017-05-12T00:35:56.823Z,993.07
2017-05-12T00:36:22.920Z,993.09
2017-05-12T00:36:49.027Z,993.05
2017-05-12T00:37:15.176Z,993.06
2017-05-12T00:37:41.318Z,993.06
2017-05-12T00:38:07.478Z,993.05
2017-05-12T00:38:33.575Z,993.02
2017-05-12T00:38:59.739Z,993.02
2017-05-12T00:39:25.846Z,993.01
2017-05-12T00:39:52.013Z,993.02
2017-05-12T00:40:18.172Z,993.04
2017-05-12T00:40:44.292Z,993.08
2017-05-12T00:41:10.383Z,993.02
2017-05-12T00:41:36.492Z,993.02
2017-05-12T00:42:02.641Z,993.03
2017-05-12T00:42:28.811Z,993.02
2017-05-12T00:42:54.991Z,993.05
2017-05-12T00:43:21.091Z,993.01
2017-05-12T00:43:47.208Z,993
2017-05-12T00:44:13.313Z,993.02
2017-05-12T00:44:39.475Z,993.08
2017-05-12T00:45:05.596Z,993.05
2017-05-12T00:45:31.690Z,993.02
2017-05-12T00:45:57.783Z,993.02
2017-05-12T00:46:23.967Z,993.06
2017-05-12T00:46:50.064Z,992.99
2017-05-12T00:47:16.206Z,993.04
2017-05-12T00:47:42.332Z,992.99
2017-05-12T00:48:08.501Z,992.99
2017-05-12T00:48:34.582Z,993
2017-05-12T00:49:00.757Z,992.99
2017-05-12T00:49:26.892Z,992.99
2017-05-12T00:49:52.983Z,992.98
2017-05-12T00:50:19.105Z,993.03
2017-05-12T00:50:45.255Z,992.94
2017-05-12T00:51:11.361Z,993.02
2017-05-12T00:51:37.468Z,992.97
2017-05-12T00:52:03.556Z,992.94
2017-05-12T00:52:29.682Z,992.97
2017-05-12T00:52:55.818Z,992.98
2017-05-12T00:53:21.934Z,992.97
2017-05-12T00:53:48.081Z,993.01
2017-05-12T00:54:14.272Z,992.95
2017-05-12T00:54:40.419Z,992.98
2017-05-12T00:55:06.536Z,992.98
2017-05-12T00:55:32.647Z,992.97
2017-05-12T00:55:58.745Z,992.98
2017-05-12T00:56:24.872Z,993
2017-05-12T00:56:50.993Z,992.97
2017-05-12T00:57:17.137Z,992.96
2017-05-12T00:57:43.272Z,992.95
2017-05-12T00:58:09.418Z,993.02
2017-05-12T00:58:35.508Z,992.99
2017-05-12T00:59:01.649Z,993
2017-05-12T00:59:27.798Z,992.98
2017-05-12T00:59:53.917Z,993.01
2017-05-12T01:00:20.048Z,992.99
2017-05-12T01:00:46.177Z,992.99
2017-05-12T01:01:12.267Z,993
2017-05-12T01:01:38.374Z,992.95
2017-05-12T01:02:04.487Z,992.98
2017-05-12T01:02:30.594Z,992.95
2017-05-12T01:02:56.750Z,992.98
2017-05-12T01:03:22.914Z,992.98
2017-05-12T01:03:49.074Z,992.97
2017-05-12T01:04:15.205Z,992.97
2017-05-12T01:04:41.373Z,992.97
2017-05-12T01:05:07.505Z,992.99
2017-05-12T01:05:33.640Z,992.98
2017-05-12T01:05:59.751Z,993.01
2017-05-12T01:06:25.874Z,992.99
2017-05-12T01:06:51.980Z,992.99
2017-05-12T01:07:18.098Z,993
2017-05-12T01:07:44.196Z,993
2017-05-12T01:08:10.384Z,993.01
2017-05-12T01:08:36.502Z,993.03
2017-05-12T01:09:02.592Z,993.02
2017-05-12T01:09:28.730Z,993.02
2017-05-12T01:09:54.907Z,993.06
2017-05-12T01:10:21.021Z,993.01
2017-05-12T01:10:47.126Z,993.01
2017-05-12T01:11:13.253Z,993.01
2017-05-12T01:11:39.368Z,993.04
2017-05-12T01:12:05.497Z,993.01
2017-05-12T01:12:31.633Z,993.03
2017-05-12T01:12:57.753Z,993.02
2017-05-12T01:13:23.905Z,993.03
2017-05-12T01:13:50.023Z,993.02
2017-05-12T01:14:16.159Z,993.06
2017-05-12T01:14:42.317Z,993.04
2017-05-12T01:15:08.456Z,993.06
2017-05-12T01:15:34.585Z,993.06
2017-05-12T01:16:00.746Z,993.07
2017-05-12T01:16:26.861Z,993.03
2017-05-12T01:16:52.990Z,993.02
2017-05-12T01:17:19.149Z,993.03
2017-05-12T01:17:45.303Z,993.06
2017-05-12T01:18:11.383Z,993.03
2017-05-12T01:18:37.510Z,993.04
2017-05-12T01:19:03.612Z,993.02
2017-05-12T01:19:29.777Z,993.07
2017-05-12T01:19:55.915Z,993.05
2017-05-12T01:20:22.015Z,993.06
2017-05-12T01:20:48.151Z,993.04
2017-05-12T01:21:14.241Z,993.07
2017-05-12T01:21:40.340Z,993.02
2017-05-12T01:22:06.475Z,993.07
2017-05-12T01:22:32.569Z,993.06
2017-05-12T01:22:58.682Z,993.07
2017-05-12T01:23:24.826Z,993.04
2017-05-12T01:23:50.946Z,993.05
2017-05-12T01:24:17.053Z,993.03
2017-05-12T01:24:43.169Z,993.04
2017-05-12T01:25:09.293Z,993.03
2017-05-12T01:25:35.427Z,993.06
2017-05-12T01:26:01.549Z,993.05
2017-05-12T01:26:27.640Z,993.06
2017-05-12T01:26:53.779Z,993.06
2017-05-12T01:27:19.880Z,993.04
2017-05-12T01:27:46.017Z,993.07
2017-05-12T01:28:12.148Z,993.08
2017-05-12T01:28:38.333Z,993.04
2017-05-12T01:29:04.459Z,993.05
2017-05-12T01:29:30.689Z,993.08
2017-05-12T01:29:56.830Z,993.09
2017-05-12T01:30:22.938Z,993.11
2017-05-12T01:30:49.063Z,993.11
2017-05-12T01:31:15.177Z,993.11
2017-05-12T01:31:41.313Z,993.1
2017-05-12T01:32:07.442Z,993.1
2017-05-12T01:32:33.559Z,993.12
2017-05-12T01:32:59.688Z,993.12
2017-05-12T01:33:25.878Z,993.12
2017-05-12T01:33:52.015Z,993.11
2017-05-12T01:34:18.141Z,993.18
2017-05-12T01:34:44.300Z,993.19
2017-05-12T01:35:10.392Z,993.16
2017-05-12T01:35:36.523Z,993.14
2017-05-12T01:36:02.614Z,993.21
2017-05-12T01:36:28.745Z,993.18
2017-05-12T01:36:54.878Z,993.2
2017-05-12T01:37:20.990Z,993.21
2017-05-12T01:37:47.164Z,993.21
2017-05-12T01:38:13.372Z,993.24
2017-05-12T01:38:39.493Z,993.24
2017-05-12T01:39:05.611Z,993.25
2017-05-12T01:39:31.771Z,993.29
2017-05-12T01:39:57.947Z,993.27
2017-05-12T01:40:24.061Z,993.24
2017-05-12T01:40:50.192Z,993.24
2017-05-12T01:41:16.293Z,993.26
2017-05-12T01:41:42.401Z,993.29
2017-05-12T01:42:08.491Z,993.29
2017-05-12T01:42:34.590Z,993.26
2017-05-12T01:43:00.780Z,993.26
2017-05-12T01:43:26.899Z,993.3
2017-05-12T01:43:53.039Z,993.3
2017-05-12T01:44:19.174Z,993.32
2017-05-12T01:44:45.298Z,993.33
2017-05-12T01:45:11.389Z,993.32
2017-05-12T01:45:37.525Z,993.32
2017-05-12T01:46:03.616Z,993.31
2017-05-12T01:46:29.744Z,993.34
2017-05-12T01:46:55.838Z,993.3
2017-05-12T01:47:21.952Z,993.34
2017-05-12T01:47:48.086Z,993.36
2017-05-12T01:48:14.212Z,993.36
2017-05-12T01:48:40.379Z,993.35
2017-05-12T01:49:06.566Z,993.31
2017-05-12T01:49:32.696Z,993.35
2017-05-12T01:49:58.861Z,993.34
2017-05-12T01:50:24.963Z,993.4
2017-05-12T01:50:51.124Z,993.39
2017-05-12T01:51:17.237Z,993.38
2017-05-12T01:51:43.336Z,993.42
2017-05-12T01:52:09.496Z,993.36
2017-05-12T01:52:35.613Z,993.4
2017-05-12T01:53:01.737Z,993.42
2017-05-12T01:53:27.843Z,993.41
2017-05-12T01:53:54.018Z,993.39
2017-05-12T01:54:20.135Z,993.38
2017-05-12T01:54:46.298Z,993.39
2017-05-12T01:55:12.397Z,993.39
2017-05-12T01:55:38.488Z,993.39
2017-05-12T01:56:04.671Z,993.4
2017-05-12T01:56:30.799Z,993.37
2017-05-12T01:56:56.892Z,993.36
2017-05-12T01:57:23.022Z,993.4
2017-05-12T01:57:49.166Z,993.41
2017-05-12T01:58:15.275Z,993.42
2017-05-12T01:58:41.400Z,993.42
2017-05-12T01:59:07.482Z,993.44
2017-05-12T01:59:33.638Z,993.43
2017-05-12T01:59:59.794Z,993.43
2017-05-12T02:00:25.909Z,993.43
2017-05-12T02:00:52.037Z,993.46
2017-05-12T02:01:18.145Z,993.46
2017-05-12T02:01:47.295Z,993.48
2017-05-12T02:02:13.419Z,993.46
2017-05-12T02:02:39.581Z,993.46
2017-05-12T02:03:05.722Z,993.44
2017-05-12T02:03:31.851Z,993.48
2017-05-12T02:03:57.940Z,993.44
2017-05-12T02:04:24.099Z,993.46
2017-05-12T02:04:50.259Z,993.47
2017-05-12T02:05:16.348Z,993.44
2017-05-12T02:05:42.447Z,993.42
2017-05-12T02:06:08.581Z,993.45
2017-05-12T02:06:34.671Z,993.47
2017-05-12T02:07:00.790Z,993.45
2017-05-12T02:07:26.898Z,993.44
2017-05-12T02:07:53.020Z,993.45
2017-05-12T02:08:19.158Z,993.45
2017-05-12T02:08:45.294Z,993.44
2017-05-12T02:09:11.391Z,993.45
2017-05-12T02:09:37.556Z,993.49
2017-05-12T02:10:03.749Z,993.49
2017-05-12T02:10:29.847Z,993.42
2017-05-12T02:10:55.956Z,993.46
2017-05-12T02:11:22.100Z,993.48
2017-05-12T02:11:48.265Z,993.48
2017-05-12T02:12:14.375Z,993.48
2017-05-12T02:12:40.499Z,993.51
2017-05-12T02:13:06.640Z,993.51
2017-05-12T02:13:32.747Z,993.46
2017-05-12T02:13:58.903Z,993.51
2017-05-12T02:14:25.081Z,993.48
2017-05-12T02:14:51.281Z,993.48
2017-05-12T02:15:17.397Z,993.51
2017-05-12T02:15:43.536Z,993.48
2017-05-12T02:16:09.714Z,993.49
2017-05-12T02:16:35.832Z,993.49
2017-05-12T02:17:01.992Z,993.48
2017-05-12T02:17:28.123Z,993.55
2017-05-12T02:17:54.262Z,993.48
2017-05-12T02:18:20.392Z,993.49
2017-05-12T02:18:46.610Z,993.51
2017-05-12T02:19:12.725Z,993.51
2017-05-12T02:19:38.874Z,993.53
2017-05-12T02:20:05.017Z,993.47
2017-05-12T02:20:31.183Z,993.5
2017-05-12T02:20:57.308Z,993.54
2017-05-12T02:21:23.400Z,993.45
2017-05-12T02:21:49.552Z,993.51
2017-05-12T02:22:15.659Z,993.53
2017-05-12T02:22:41.774Z,993.53
2017-05-12T02:23:07.924Z,993.54
2017-05-12T02:23:34.055Z,993.52
2017-05-12T02:24:00.229Z,993.56
2017-05-12T02:24:26.326Z,993.52
2017-05-12T02:24:52.519Z,993.53
2017-05-12T02:25:18.639Z,993.56
2017-05-12T02:25:44.746Z,993.54
2017-05-12T02:26:10.885Z,993.57
2017-05-12T02:26:36.986Z,993.57
2017-05-12T02:27:03.092Z,993.57
2017-05-12T02:27:29.210Z,993.52
2017-05-12T02:27:55.331Z,993.59
2017-05-12T02:28:21.440Z,993.59
2017-05-12T02:28:47.634Z,993.57
2017-05-12T02:29:13.777Z,993.59
2017-05-12T02:29:39.939Z,993.59
2017-05-12T02:30:06.092Z,993.56
2017-05-12T02:30:32.207Z,993.56
2017-05-12T02:30:58.338Z,993.59
2017-05-12T02:31:24.457Z,993.6
2017-05-12T02:31:50.563Z,993.59
2017-05-12T02:32:16.680Z,993.58
2017-05-12T02:32:42.798Z,993.57
2017-05-12T02:33:08.907Z,993.61
2017-05-12T02:33:35.061Z,993.58
2017-05-12T02:34:01.177Z,993.59
2017-05-12T02:34:27.311Z,993.61
2017-05-12T02:34:53.464Z,993.58
2017-05-12T02:35:19.553Z,993.6
2017-05-12T02:35:45.683Z,993.58
2017-05-12T02:36:11.818Z,993.56
2017-05-12T02:36:37.904Z,993.56
2017-05-12T02:37:04.030Z,993.58
2017-05-12T02:37:30.161Z,993.59
2017-05-12T02:37:56.277Z,993.56
2017-05-12T02:38:22.398Z,993.6
2017-05-12T02:38:48.506Z,993.6
2017-05-12T02:39:14.680Z,993.62
2017-05-12T02:39:40.770Z,993.61
2017-05-12T02:40:06.904Z,993.61
2017-05-12T02:40:33.001Z,993.59
2017-05-12T02:40:59.094Z,993.62
2017-05-12T02:41:25.229Z,993.59
2017-05-12T02:41:51.328Z,993.59
2017-05-12T02:42:17.482Z,993.63
2017-05-12T02:42:43.683Z,993.62
2017-05-12T02:43:09.822Z,993.6
2017-05-12T02:43:35.931Z,993.62
2017-05-12T02:44:02.054Z,993.6
2017-05-12T02:44:28.144Z,993.61
2017-05-12T02:44:54.250Z,993.64
2017-05-12T02:45:20.352Z,993.62
2017-05-12T02:45:46.490Z,993.63
2017-05-12T02:46:12.595Z,993.62
2017-05-12T02:46:38.701Z,993.64
2017-05-12T02:47:04.815Z,993.66
2017-05-12T02:47:30.939Z,993.68
2017-05-12T02:47:57.116Z,993.63
2017-05-12T02:48:23.248Z,993.62
2017-05-12T02:48:49.432Z,993.68
2017-05-12T02:49:15.549Z,993.63
2017-05-12T02:49:41.708Z,993.6
2017-05-12T02:50:07.930Z,993.61
2017-05-12T02:50:34.009Z,993.61
2017-05-12T02:51:00.135Z,993.67
2017-05-12T02:51:26.298Z,993.63
2017-05-12T02:51:52.418Z,993.58
2017-05-12T02:52:18.515Z,993.6
2017-05-12T02:52:44.678Z,993.62
2017-05-12T02:53:10.824Z,993.63
2017-05-12T02:53:36.986Z,993.64
2017-05-12T02:54:03.071Z,993.62
2017-05-12T02:54:29.197Z,993.64
2017-05-12T02:54:55.386Z,993.65
2017-05-12T02:55:21.503Z,993.66
2017-05-12T02:55:47.600Z,993.62
2017-05-12T02:56:13.735Z,993.65
2017-05-12T02:56:39.857Z,993.66
2017-05-12T02:57:05.940Z,993.64
2017-05-12T02:57:32.104Z,993.64
2017-05-12T02:57:58.281Z,993.61
2017-05-12T02:58:24.420Z,993.64
2017-05-12T02:58:50.582Z,993.61
2017-05-12T02:59:16.751Z,993.62
2017-05-12T02:59:42.912Z,993.59
2017-05-12T03:00:09.030Z,993.58
2017-05-12T03:00:35.145Z,993.66
2017-05-12T03:01:01.255Z,993.6
2017-05-12T03:01:27.405Z,993.63
2017-05-12T03:01:53.522Z,993.62
2017-05-12T03:02:19.654Z,993.61
2017-05-12T03:02:45.781Z,993.6
2017-05-12T03:03:11.919Z,993.55
2017-05-12T03:03:38.019Z,993.6
2017-05-12T03:04:04.154Z,993.59
2017-05-12T03:04:30.248Z,993.59
2017-05-12T03:04:56.399Z,993.6
2017-05-12T03:05:22.487Z,993.61
2017-05-12T03:05:48.620Z,993.56
2017-05-12T03:06:14.747Z,993.66
2017-05-12T03:06:40.861Z,993.64
2017-05-12T03:07:06.963Z,993.63
2017-05-12T03:07:33.124Z,993.65
2017-05-12T03:07:59.238Z,993.59
2017-05-12T03:08:25.362Z,993.65
2017-05-12T03:08:51.525Z,993.64
2017-05-12T03:09:17.616Z,993.64
2017-05-12T03:09:43.762Z,993.66
2017-05-12T03:10:09.911Z,993.64
2017-05-12T03:10:36.011Z,993.66
2017-05-12T03:11:02.146Z,993.65
2017-05-12T03:11:28.233Z,993.61
2017-05-12T03:11:54.333Z,993.68
2017-05-12T03:12:20.463Z,993.67
2017-05-12T03:12:46.606Z,993.66
2017-05-12T03:13:12.728Z,993.64
2017-05-12T03:13:38.893Z,993.63
2017-05-12T03:14:05.068Z,993.62
2017-05-12T03:14:31.208Z,993.58
2017-05-12T03:14:57.375Z,993.61
2017-05-12T03:15:23.500Z,993.6
2017-05-12T03:15:49.605Z,993.61
2017-05-12T03:16:15.694Z,993.59
2017-05-12T03:16:41.839Z,993.57
2017-05-12T03:17:07.945Z,993.58
2017-05-12T03:17:34.040Z,993.58
2017-05-12T03:18:00.153Z,993.55
2017-05-12T03:18:26.350Z,993.59
2017-05-12T03:18:52.494Z,993.56
2017-05-12T03:19:18.610Z,993.57
2017-05-12T03:19:44.715Z,993.57
2017-05-12T03:20:10.843Z,993.55
2017-05-12T03:20:36.935Z,993.53
2017-05-12T03:21:03.038Z,993.55
2017-05-12T03:21:29.217Z,993.58
2017-05-12T03:21:55.282Z,993.55
2017-05-12T03:22:21.410Z,993.55
2017-05-12T03:22:47.519Z,993.52
2017-05-12T03:23:13.699Z,993.51
2017-05-12T03:23:39.758Z,993.57
2017-05-12T03:24:05.892Z,993.55
2017-05-12T03:24:31.986Z,993.55
2017-05-12T03:24:58.148Z,993.55
2017-05-12T03:25:24.279Z,993.54
2017-05-12T03:25:50.430Z,993.56
2017-05-12T03:26:16.544Z,993.56
2017-05-12T03:26:42.651Z,993.51
2017-05-12T03:27:08.770Z,993.53
2017-05-12T03:27:34.879Z,993.48
2017-05-12T03:28:01.026Z,993.54
2017-05-12T03:28:27.117Z,993.55
2017-05-12T03:28:53.280Z,993.55
2017-05-12T03:29:19.431Z,993.58
2017-05-12T03:29:45.548Z,993.55
2017-05-12T03:30:11.675Z,993.55
2017-05-12T03:30:37.832Z,993.59
2017-05-12T03:31:03.950Z,993.56
2017-05-12T03:31:30.075Z,993.56
2017-05-12T03:31:56.238Z,993.56
2017-05-12T03:32:22.355Z,993.56
2017-05-12T03:32:48.505Z,993.56
2017-05-12T03:33:14.968Z,993.56
2017-05-12T03:33:41.099Z,993.55
2017-05-12T03:34:07.256Z,993.52
2017-05-12T03:34:33.396Z,993.57
2017-05-12T03:34:59.522Z,993.56
2017-05-12T03:35:25.658Z,993.57
2017-05-12T03:35:51.773Z,993.56
2017-05-12T03:36:17.896Z,993.56
2017-05-12T03:36:44.003Z,993.6
2017-05-12T03:37:10.093Z,993.57
2017-05-12T03:37:36.193Z,993.55
2017-05-12T03:38:02.400Z,993.58
2017-05-12T03:38:28.505Z,993.59
2017-05-12T03:38:54.666Z,993.57
2017-05-12T03:39:20.806Z,993.61
2017-05-12T03:39:47.007Z,993.57
2017-05-12T03:40:13.142Z,993.58
2017-05-12T03:40:39.288Z,993.62
2017-05-12T03:41:05.410Z,993.57
2017-05-12T03:41:31.570Z,993.55
2017-05-12T03:41:57.663Z,993.59
2017-05-12T03:42:23.777Z,993.6
2017-05-12T03:42:49.912Z,993.58
2017-05-12T03:43:16.037Z,993.59
2017-05-12T03:43:42.168Z,993.58
2017-05-12T03:44:08.312Z,993.59
2017-05-12T03:44:34.479Z,993.58
2017-05-12T03:45:00.587Z,993.58
2017-05-12T03:45:26.683Z,993.58
2017-05-12T03:45:52.845Z,993.56
2017-05-12T03:46:18.983Z,993.59
2017-05-12T03:46:45.134Z,993.6
2017-05-12T03:47:11.321Z,993.63
2017-05-12T03:47:37.427Z,993.57
2017-05-12T03:48:03.583Z,993.57
2017-05-12T03:48:29.677Z,993.55
2017-05-12T03:48:55.855Z,993.57
2017-05-12T03:49:21.998Z,993.58
2017-05-12T03:49:48.190Z,993.59
2017-05-12T03:50:14.312Z,993.57
2017-05-12T03:50:40.404Z,993.6
2017-05-12T03:51:06.540Z,993.62
2017-05-12T03:51:32.640Z,993.63
2017-05-12T03:51:58.757Z,993.58
2017-05-12T03:52:24.862Z,993.6
2017-05-12T03:52:50.967Z,993.62
2017-05-12T03:53:17.079Z,993.58
2017-05-12T03:53:43.255Z,993.62
2017-05-12T03:54:09.444Z,993.6
2017-05-12T03:54:35.610Z,993.6
2017-05-12T03:55:01.742Z,993.61
2017-05-12T03:55:27.861Z,993.61
2017-05-12T03:55:53.990Z,993.6
2017-05-12T03:56:20.124Z,993.61
2017-05-12T03:56:46.211Z,993.6
2017-05-12T03:57:12.359Z,993.62
2017-05-12T03:57:38.518Z,993.62
2017-05-12T03:58:04.657Z,993.6
2017-05-12T03:58:30.752Z,993.61
2017-05-12T03:58:56.886Z,993.6
2017-05-12T03:59:23.036Z,993.62
2017-05-12T03:59:49.177Z,993.64
2017-05-12T04:00:15.329Z,993.62
2017-05-12T04:00:41.429Z,993.64
2017-05-12T04:01:07.563Z,993.64
2017-05-12T04:01:33.681Z,993.63
2017-05-12T04:01:59.825Z,993.65
2017-05-12T04:02:25.932Z,993.65
2017-05-12T04:02:52.078Z,993.69
2017-05-12T04:03:18.217Z,993.64
2017-05-12T04:03:44.410Z,993.66
2017-05-12T04:04:10.534Z,993.64
2017-05-12T04:04:36.646Z,993.66
2017-05-12T04:05:02.809Z,993.68
2017-05-12T04:05:28.907Z,993.68
2017-05-12T04:05:54.996Z,993.64
2017-05-12T04:06:21.102Z,993.72
2017-05-12T04:06:47.234Z,993.7
2017-05-12T04:07:13.321Z,993.72
2017-05-12T04:07:39.445Z,993.69
2017-05-12T04:08:05.577Z,993.7
2017-05-12T04:08:31.667Z,993.67
2017-05-12T04:08:57.813Z,993.69
2017-05-12T04:09:24.004Z,993.69
2017-05-12T04:09:50.122Z,993.68
2017-05-12T04:10:16.213Z,993.71
2017-05-12T04:10:42.321Z,993.69
2017-05-12T04:11:08.418Z,993.72
2017-05-12T04:11:34.548Z,993.67
2017-05-12T04:12:00.639Z,993.7
2017-05-12T04:12:26.784Z,993.74
2017-05-12T04:12:52.919Z,993.72
2017-05-12T04:13:19.065Z,993.72
2017-05-12T04:13:45.205Z,993.75
2017-05-12T04:14:11.370Z,993.73
2017-05-12T04:14:37.517Z,993.75
2017-05-12T04:15:03.631Z,993.76
2017-05-12T04:15:29.736Z,993.75
2017-05-12T04:15:55.836Z,993.74
2017-05-12T04:16:21.928Z,993.75
2017-05-12T04:16:48.033Z,993.77
2017-05-12T04:17:14.150Z,993.77
2017-05-12T04:17:40.259Z,993.72
2017-05-12T04:18:06.384Z,993.75
2017-05-12T04:18:32.499Z,993.73
2017-05-12T04:18:58.658Z,993.78
2017-05-12T04:19:24.873Z,993.76
2017-05-12T04:19:51.011Z,993.75
2017-05-12T04:20:17.137Z,993.74
2017-05-12T04:20:43.268Z,993.77
2017-05-12T04:21:09.383Z,993.76
2017-05-12T04:21:35.505Z,993.78
2017-05-12T04:22:01.637Z,993.75
2017-05-12T04:22:27.754Z,993.79
2017-05-12T04:22:53.887Z,993.77
2017-05-12T04:23:20.072Z,993.8
2017-05-12T04:23:46.204Z,993.76
2017-05-12T04:24:12.335Z,993.76
2017-05-12T04:24:38.425Z,993.78
2017-05-12T04:25:04.602Z,993.81
2017-05-12T04:25:30.708Z,993.82
2017-05-12T04:25:56.798Z,993.79
2017-05-12T04:26:22.920Z,993.79
2017-05-12T04:26:49.024Z,993.79
2017-05-12T04:27:15.146Z,993.83
2017-05-12T04:27:41.287Z,993.82
2017-05-12T04:28:07.503Z,993.77
2017-05-12T04:28:33.647Z,993.85
2017-05-12T04:28:59.835Z,993.81
2017-05-12T04:29:25.977Z,993.85
2017-05-12T04:29:52.074Z,993.83
2017-05-12T04:30:18.237Z,993.83
2017-05-12T04:30:44.330Z,993.79
2017-05-12T04:31:10.471Z,993.8
2017-05-12T04:31:36.633Z,993.78
2017-05-12T04:32:02.757Z,993.81
2017-05-12T04:32:28.870Z,993.83
2017-05-12T04:32:55.027Z,993.81
2017-05-12T04:33:21.157Z,993.83
2017-05-12T04:33:47.635Z,993.83
2017-05-12T04:34:13.757Z,993.81
2017-05-12T04:34:39.897Z,993.87
2017-05-12T04:35:06.058Z,993.86
2017-05-12T04:35:32.155Z,993.87
2017-05-12T04:35:58.273Z,993.86
2017-05-12T04:36:24.403Z,993.87
2017-05-12T04:36:50.503Z,993.9
2017-05-12T04:37:16.619Z,993.89
2017-05-12T04:37:42.747Z,993.88
2017-05-12T04:38:08.908Z,993.92
2017-05-12T04:38:35.049Z,993.87
2017-05-12T04:39:01.174Z,993.86
2017-05-12T04:39:27.270Z,993.88
2017-05-12T04:39:53.429Z,993.87
2017-05-12T04:40:19.583Z,993.92
2017-05-12T04:40:45.676Z,993.9
2017-05-12T04:41:11.806Z,993.9
2017-05-12T04:41:37.912Z,993.89
2017-05-12T04:42:04.051Z,993.9
2017-05-12T04:42:30.178Z,993.87
2017-05-12T04:42:56.288Z,993.89
2017-05-12T04:43:22.453Z,993.89
2017-05-12T04:43:48.597Z,993.92
2017-05-12T04:44:14.732Z,993.92
2017-05-12T04:44:40.855Z,993.91
2017-05-12T04:45:06.991Z,993.91
2017-05-12T04:45:33.101Z,993.92
2017-05-12T04:45:59.201Z,993.9
2017-05-12T04:46:25.307Z,993.92
2017-05-12T04:46:51.397Z,993.92
2017-05-12T04:47:17.519Z,993.93
2017-05-12T04:47:43.680Z,993.95
2017-05-12T04:48:09.853Z,993.92
2017-05-12T04:48:35.945Z,993.97
2017-05-12T04:49:02.132Z,993.98
2017-05-12T04:49:28.281Z,993.99
2017-05-12T04:49:54.446Z,993.99
2017-05-12T04:50:20.601Z,993.98
2017-05-12T04:50:46.729Z,993.99
2017-05-12T04:51:12.841Z,993.98
2017-05-12T04:51:38.970Z,993.98
2017-05-12T04:52:05.076Z,993.99
2017-05-12T04:52:31.191Z,994.02
2017-05-12T04:52:57.364Z,993.99
2017-05-12T04:53:23.583Z,993.97
2017-05-12T04:53:49.671Z,994
2017-05-12T04:54:15.793Z,994
2017-05-12T04:54:41.955Z,994.01
2017-05-12T04:55:08.091Z,994
2017-05-12T04:55:34.232Z,993.99
2017-05-12T04:56:00.333Z,994.02
2017-05-12T04:56:26.434Z,994.03
2017-05-12T04:56:52.567Z,994.01
2017-05-12T04:57:18.709Z,994.01
2017-05-12T04:57:44.833Z,994.01
2017-05-12T04:58:10.969Z,993.98
2017-05-12T04:58:37.140Z,994.01
2017-05-12T04:59:03.255Z,994.05
2017-05-12T04:59:29.393Z,994.06
2017-05-12T04:59:55.518Z,994.06
2017-05-12T05:00:21.610Z,994.08
2017-05-12T05:00:47.743Z,994.09
2017-05-12T05:01:13.869Z,994.08
2017-05-12T05:01:39.971Z,994.07
2017-05-12T05:02:06.065Z,994.07
2017-05-12T05:02:32.179Z,994.06
2017-05-12T05:02:58.344Z,994.06
2017-05-12T05:03:24.468Z,994.06
2017-05-12T05:03:50.632Z,994.02
2017-05-12T05:04:16.762Z,994.07
2017-05-12T05:04:42.889Z,994.06
2017-05-12T05:05:09.028Z,994.07
2017-05-12T05:05:35.154Z,994.1
2017-05-12T05:06:01.287Z,994.12
2017-05-12T05:06:27.376Z,994.12
2017-05-12T05:06:53.500Z,994.14
2017-05-12T05:07:19.620Z,994.14
2017-05-12T05:07:45.754Z,994.08
2017-05-12T05:08:11.856Z,994.13
2017-05-12T05:08:37.946Z,994.11
2017-05-12T05:09:04.125Z,994.11
2017-05-12T05:09:30.286Z,994.14
2017-05-12T05:09:56.401Z,994.16
2017-05-12T05:10:22.501Z,994.18
2017-05-12T05:10:48.660Z,994.15
2017-05-12T05:11:14.751Z,994.15
2017-05-12T05:11:40.848Z,994.16
2017-05-12T05:12:06.981Z,994.17
2017-05-12T05:12:33.125Z,994.17
2017-05-12T05:12:59.261Z,994.15
2017-05-12T05:13:25.401Z,994.19
2017-05-12T05:13:51.498Z,994.22
2017-05-12T05:14:17.590Z,994.2
2017-05-12T05:14:43.743Z,994.16
2017-05-12T05:15:09.869Z,994.17
2017-05-12T05:15:35.959Z,994.18
2017-05-12T05:16:02.111Z,994.16
2017-05-12T05:16:28.249Z,994.16
2017-05-12T05:16:54.366Z,994.17
2017-05-12T05:17:20.489Z,994.23
2017-05-12T05:17:46.623Z,994.21
2017-05-12T05:18:12.766Z,994.23
2017-05-12T05:18:38.928Z,994.25
2017-05-12T05:19:05.066Z,994.23
2017-05-12T05:19:31.317Z,994.23
2017-05-12T05:19:57.488Z,994.22
2017-05-12T05:20:23.601Z,994.22
2017-05-12T05:20:49.724Z,994.21
2017-05-12T05:21:15.856Z,994.21
2017-05-12T05:21:41.975Z,994.2
2017-05-12T05:22:08.070Z,994.24
2017-05-12T05:22:34.204Z,994.24
2017-05-12T05:23:00.322Z,994.24
2017-05-12T05:23:26.414Z,994.27
2017-05-12T05:23:52.593Z,994.33
2017-05-12T05:24:18.717Z,994.27
2017-05-12T05:24:44.879Z,994.29
2017-05-12T05:25:10.971Z,994.3
2017-05-12T05:25:37.070Z,994.27
2017-05-12T05:26:03.175Z,994.25
2017-05-12T05:26:29.269Z,994.26
2017-05-12T05:26:55.358Z,994.28
2017-05-12T05:27:21.465Z,994.27